sensor_id;sensor_type;location;lat;lon;timestamp;temperature;humidity
57664;DHT22;43493;53.098;6.064;2024-03-23T00:56:16;6.90;99.90
57664;DHT22;43493;53.098;6.064;2024-03-23T00:58:41;6.90;99.90
57664;DHT22;43493;53.098;6.064;2024-03-23T01:01:07;6.90;99.90
57664;DHT22;43493;53.098;6.064;2024-03-23T01:03:33;6.90;99.90
57664;DHT22;43493;53.098;6.064;2024-03-23T01:06:00;6.90;99.90
57664;DHT22;43493;53.098;6.064;2024-03-23T01:08:25;6.90;99.90
57664;DHT22;43493;53.098;6.064;2024-03-23T01:10:59;6.80;99.90
57664;DHT22;43493;53.098;6.064;2024-03-23T01:13:25;6.80;99.90
57664;DHT22;43493;53.098;6.064;2024-03-23T01:15:51;6.80;99.90
57664;DHT22;43493;53.098;6.064;2024-03-23T01:18:18;6.80;99.90
57664;DHT22;43493;53.098;6.064;2024-03-23T01:20:44;6.80;99.90
57664;DHT22;43493;53.098;6.064;2024-03-23T01:23:10;6.70;99.90
57664;DHT22;43493;53.098;6.064;2024-03-23T01:25:36;6.70;99.90
57664;DHT22;43493;53.098;6.064;2024-03-23T01:28:02;6.70;99.90
57664;DHT22;43493;53.098;6.064;2024-03-23T01:30:28;6.70;99.90
57664;DHT22;43493;53.098;6.064;2024-03-23T01:32:54;6.70;99.90
57664;DHT22;43493;53.098;6.064;2024-03-23T01:35:19;6.70;99.90
57664;DHT22;43493;53.098;6.064;2024-03-23T01:37:45;6.70;99.90
57664;DHT22;43493;53.098;6.064;2024-03-23T01:40:11;6.70;99.90
57664;DHT22;43493;53.098;6.064;2024-03-23T01:42:39;6.60;99.90
57664;DHT22;43493;53.098;6.064;2024-03-23T01:45:09;6.60;99.90
57664;DHT22;43493;53.098;6.064;2024-03-23T01:47:35;6.60;99.90
57664;DHT22;43493;53.098;6.064;2024-03-23T01:50:01;6.60;99.90
57664;DHT22;43493;53.098;6.064;2024-03-23T01:52:27;6.60;99.90
57664;DHT22;43493;53.098;6.064;2024-03-23T01:54:53;6.50;99.90
57664;DHT22;43493;53.098;6.064;2024-03-23T01:57:22;6.50;99.90
57664;DHT22;43493;53.098;6.064;2024-03-23T01:59:49;6.50;99.90
57664;DHT22;43493;53.098;6.064;2024-03-23T02:02:15;6.50;99.90
57664;DHT22;43493;53.098;6.064;2024-03-23T02:04:43;6.50;99.90
57664;DHT22;43493;53.098;6.064;2024-03-23T02:07:08;6.50;99.90
57664;DHT22;43493;53.098;6.064;2024-03-23T02:09:35;6.50;99.90
57664;DHT22;43493;53.098;6.064;2024-03-23T02:12:02;6.50;99.90
57664;DHT22;43493;53.098;6.064;2024-03-23T02:14:28;6.50;99.90
57664;DHT22;43493;53.098;6.064;2024-03-23T02:16:53;6.50;99.90
57664;DHT22;43493;53.098;6.064;2024-03-23T02:19:19;6.40;99.90
57664;DHT22;43493;53.098;6.064;2024-03-23T02:21:45;6.50;99.90
57664;DHT22;43493;53.098;6.064;2024-03-23T02:24:12;6.50;99.90
57664;DHT22;43493;53.098;6.064;2024-03-23T02:26:38;6.50;99.90
57664;DHT22;43493;53.098;6.064;2024-03-23T02:29:03;6.50;99.90
57664;DHT22;43493;53.098;6.064;2024-03-23T02:31:29;6.50;99.90
57664;DHT22;43493;53.098;6.064;2024-03-23T02:33:55;6.40;99.90
57664;DHT22;43493;53.098;6.064;2024-03-23T02:36:21;6.40;99.90
57664;DHT22;43493;53.098;6.064;2024-03-23T02:38:47;6.40;99.90
57664;DHT22;43493;53.098;6.064;2024-03-23T02:41:12;6.40;99.90
57664;DHT22;43493;53.098;6.064;2024-03-23T02:43:39;6.40;99.90
57664;DHT22;43493;53.098;6.064;2024-03-23T02:46:04;6.40;99.90
57664;DHT22;43493;53.098;6.064;2024-03-23T02:48:30;6.40;99.90
57664;DHT22;43493;53.098;6.064;2024-03-23T02:50:56;6.40;99.90
57664;DHT22;43493;53.098;6.064;2024-03-23T02:53:22;6.40;99.90
57664;DHT22;43493;53.098;6.064;2024-03-23T02:55:47;6.40;99.90
57664;DHT22;43493;53.098;6.064;2024-03-23T02:58:14;6.40;99.90
57664;DHT22;43493;53.098;6.064;2024-03-23T03:00:40;6.30;99.90
57664;DHT22;43493;53.098;6.064;2024-03-23T03:03:06;6.30;99.90
57664;DHT22;43493;53.098;6.064;2024-03-23T03:05:32;6.30;99.90
57664;DHT22;43493;53.098;6.064;2024-03-23T03:07:58;6.30;99.90
57664;DHT22;43493;53.098;6.064;2024-03-23T03:10:24;6.20;99.90
57664;DHT22;43493;53.098;6.064;2024-03-23T03:12:49;6.30;99.90
57664;DHT22;43493;53.098;6.064;2024-03-23T03:15:15;6.20;99.90
57664;DHT22;43493;53.098;6.064;2024-03-23T03:17:41;6.20;99.90
57664;DHT22;43493;53.098;6.064;2024-03-23T03:20:07;6.20;99.90
57664;DHT22;43493;53.098;6.064;2024-03-23T03:22:33;6.10;99.90
57664;DHT22;43493;53.098;6.064;2024-03-23T03:24:59;6.20;99.90
57664;DHT22;43493;53.098;6.064;2024-03-23T03:27:25;6.10;99.90
57664;DHT22;43493;53.098;6.064;2024-03-23T03:29:51;6.10;99.90
57664;DHT22;43493;53.098;6.064;2024-03-23T03:32:16;6.10;99.90
57664;DHT22;43493;53.098;6.064;2024-03-23T03:34:42;6.10;99.90
57664;DHT22;43493;53.098;6.064;2024-03-23T03:37:08;6.00;99.90
57664;DHT22;43493;53.098;6.064;2024-03-23T03:39:33;6.10;99.90
57664;DHT22;43493;53.098;6.064;2024-03-23T03:41:59;6.00;99.90
57664;DHT22;43493;53.098;6.064;2024-03-23T03:44:27;6.00;99.90
57664;DHT22;43493;53.098;6.064;2024-03-23T03:46:52;6.00;99.90
57664;DHT22;43493;53.098;6.064;2024-03-23T03:49:18;5.90;99.90
57664;DHT22;43493;53.098;6.064;2024-03-23T03:51:44;5.90;99.90
57664;DHT22;43493;53.098;6.064;2024-03-23T03:54:10;5.90;99.90
57664;DHT22;43493;53.098;6.064;2024-03-23T03:56:35;5.90;99.90
57664;DHT22;43493;53.098;6.064;2024-03-23T03:59:01;5.90;99.90
57664;DHT22;43493;53.098;6.064;2024-03-23T04:01:27;5.90;99.90
57664;DHT22;43493;53.098;6.064;2024-03-23T04:03:52;5.80;99.90
57664;DHT22;43493;53.098;6.064;2024-03-23T04:06:21;5.80;99.90
57664;DHT22;43493;53.098;6.064;2024-03-23T04:08:47;5.70;99.90
57664;DHT22;43493;53.098;6.064;2024-03-23T04:11:12;5.80;99.90
57664;DHT22;43493;53.098;6.064;2024-03-23T04:13:38;5.80;99.90
57664;DHT22;43493;53.098;6.064;2024-03-23T04:16:07;5.80;99.90
57664;DHT22;43493;53.098;6.064;2024-03-23T04:18:32;5.70;99.90
57664;DHT22;43493;53.098;6.064;2024-03-23T04:20:58;5.80;99.90
57664;DHT22;43493;53.098;6.064;2024-03-23T04:23:23;5.80;99.90
57664;DHT22;43493;53.098;6.064;2024-03-23T04:25:49;5.80;99.90
57664;DHT22;43493;53.098;6.064;2024-03-23T04:28:15;5.70;99.90
57664;DHT22;43493;53.098;6.064;2024-03-23T04:30:40;5.80;99.90
57664;DHT22;43493;53.098;6.064;2024-03-23T04:33:06;5.70;99.90
57664;DHT22;43493;53.098;6.064;2024-03-23T04:35:32;5.80;99.90
57664;DHT22;43493;53.098;6.064;2024-03-23T04:37:57;5.70;99.90
57664;DHT22;43493;53.098;6.064;2024-03-23T04:40:24;5.70;99.90
57664;DHT22;43493;53.098;6.064;2024-03-23T04:42:50;5.70;99.90
57664;DHT22;43493;53.098;6.064;2024-03-23T04:45:16;5.60;99.90
57664;DHT22;43493;53.098;6.064;2024-03-23T04:47:41;5.70;99.90
57664;DHT22;43493;53.098;6.064;2024-03-23T04:50:08;5.70;99.90
57664;DHT22;43493;53.098;6.064;2024-03-23T04:52:33;5.60;99.90
57664;DHT22;43493;53.098;6.064;2024-03-23T04:54:59;5.70;99.90
57664;DHT22;43493;53.098;6.064;2024-03-23T04:57:25;5.70;99.90
57664;DHT22;43493;53.098;6.064;2024-03-23T04:59:50;5.70;99.90
57664;DHT22;43493;53.098;6.064;2024-03-23T05:02:16;5.70;99.90
57664;DHT22;43493;53.098;6.064;2024-03-23T05:04:42;5.70;99.90
57664;DHT22;43493;53.098;6.064;2024-03-23T05:07:07;5.70;99.90
57664;DHT22;43493;53.098;6.064;2024-03-23T05:09:33;5.70;99.90
57664;DHT22;43493;53.098;6.064;2024-03-23T05:12:00;5.60;99.90
57664;DHT22;43493;53.098;6.064;2024-03-23T05:14:28;5.70;99.90
57664;DHT22;43493;53.098;6.064;2024-03-23T05:16:54;5.70;99.90
57664;DHT22;43493;53.098;6.064;2024-03-23T05:19:20;5.70;99.90
57664;DHT22;43493;53.098;6.064;2024-03-23T05:21:45;5.60;99.90
57664;DHT22;43493;53.098;6.064;2024-03-23T05:24:11;5.60;99.90
57664;DHT22;43493;53.098;6.064;2024-03-23T05:26:37;5.60;99.90
57664;DHT22;43493;53.098;6.064;2024-03-23T05:29:03;5.60;99.90
57664;DHT22;43493;53.098;6.064;2024-03-23T05:31:31;5.70;99.90
57664;DHT22;43493;53.098;6.064;2024-03-23T05:33:57;5.80;99.90
57664;DHT22;43493;53.098;6.064;2024-03-23T05:36:23;5.80;99.90
57664;DHT22;43493;53.098;6.064;2024-03-23T05:38:50;5.80;99.90
57664;DHT22;43493;53.098;6.064;2024-03-23T05:41:15;5.90;99.90
57664;DHT22;43493;53.098;6.064;2024-03-23T05:43:41;5.90;99.90
57664;DHT22;43493;53.098;6.064;2024-03-23T05:46:07;5.90;99.90
57664;DHT22;43493;53.098;6.064;2024-03-23T05:48:35;5.80;99.90
57664;DHT22;43493;53.098;6.064;2024-03-23T05:51:01;5.90;99.90
57664;DHT22;43493;53.098;6.064;2024-03-23T05:53:27;5.90;99.90
57664;DHT22;43493;53.098;6.064;2024-03-23T05:56:01;5.90;99.90
57664;DHT22;43493;53.098;6.064;2024-03-23T05:58:29;5.90;99.90
57664;DHT22;43493;53.098;6.064;2024-03-23T06:00:59;6.00;99.90
57664;DHT22;43493;53.098;6.064;2024-03-23T06:03:25;6.00;99.90
57664;DHT22;43493;53.098;6.064;2024-03-23T06:05:52;6.10;99.90
57664;DHT22;43493;53.098;6.064;2024-03-23T06:08:18;6.10;99.90
57664;DHT22;43493;53.098;6.064;2024-03-23T06:10:45;6.10;99.90
57664;DHT22;43493;53.098;6.064;2024-03-23T06:13:11;6.10;99.90
57664;DHT22;43493;53.098;6.064;2024-03-23T06:15:37;6.00;99.90
57664;DHT22;43493;53.098;6.064;2024-03-23T06:18:04;6.00;99.90
57664;DHT22;43493;53.098;6.064;2024-03-23T06:20:30;6.10;99.90
57664;DHT22;43493;53.098;6.064;2024-03-23T06:22:56;6.10;99.90
57664;DHT22;43493;53.098;6.064;2024-03-23T06:25:22;6.20;99.90
57664;DHT22;43493;53.098;6.064;2024-03-23T06:27:47;6.30;99.90
57664;DHT22;43493;53.098;6.064;2024-03-23T06:30:13;6.50;99.90
57664;DHT22;43493;53.098;6.064;2024-03-23T06:32:39;6.70;99.90
57664;DHT22;43493;53.098;6.064;2024-03-23T06:35:05;6.70;99.90
57664;DHT22;43493;53.098;6.064;2024-03-23T06:37:37;6.70;99.90
57664;DHT22;43493;53.098;6.064;2024-03-23T06:40:05;6.70;99.90
57664;DHT22;43493;53.098;6.064;2024-03-23T06:42:34;6.60;99.90
57664;DHT22;43493;53.098;6.064;2024-03-23T06:44:59;6.60;99.90
57664;DHT22;43493;53.098;6.064;2024-03-23T06:47:25;6.50;99.90
57664;DHT22;43493;53.098;6.064;2024-03-23T06:49:51;6.50;99.90
57664;DHT22;43493;53.098;6.064;2024-03-23T06:52:16;6.50;99.90
57664;DHT22;43493;53.098;6.064;2024-03-23T06:54:42;6.60;99.90
57664;DHT22;43493;53.098;6.064;2024-03-23T06:57:11;6.70;99.90
57664;DHT22;43493;53.098;6.064;2024-03-23T06:59:37;6.80;99.90
57664;DHT22;43493;53.098;6.064;2024-03-23T07:02:05;6.80;99.90
57664;DHT22;43493;53.098;6.064;2024-03-23T07:04:30;7.00;99.90
57664;DHT22;43493;53.098;6.064;2024-03-23T07:06:56;7.30;99.90
57664;DHT22;43493;53.098;6.064;2024-03-23T07:09:22;7.40;99.90
57664;DHT22;43493;53.098;6.064;2024-03-23T07:11:53;7.40;99.90
57664;DHT22;43493;53.098;6.064;2024-03-23T07:14:19;7.30;99.90
57664;DHT22;43493;53.098;6.064;2024-03-23T07:16:44;7.20;99.90
57664;DHT22;43493;53.098;6.064;2024-03-23T07:19:10;7.10;99.90
57664;DHT22;43493;53.098;6.064;2024-03-23T07:21:35;7.00;99.90
57664;DHT22;43493;53.098;6.064;2024-03-23T07:24:01;7.00;99.90
57664;DHT22;43493;53.098;6.064;2024-03-23T07:26:27;6.90;99.90
57664;DHT22;43493;53.098;6.064;2024-03-23T07:28:53;6.90;99.90
57664;DHT22;43493;53.098;6.064;2024-03-23T07:31:19;6.90;99.90
57664;DHT22;43493;53.098;6.064;2024-03-23T07:33:47;7.10;99.90
57664;DHT22;43493;53.098;6.064;2024-03-23T07:36:13;7.40;99.90
57664;DHT22;43493;53.098;6.064;2024-03-23T07:38:42;8.10;99.90
57664;DHT22;43493;53.098;6.064;2024-03-23T07:41:11;8.80;99.90
57664;DHT22;43493;53.098;6.064;2024-03-23T07:43:38;9.50;99.90
57664;DHT22;43493;53.098;6.064;2024-03-23T07:46:04;10.10;99.90
57664;DHT22;43493;53.098;6.064;2024-03-23T07:48:31;10.30;99.90
57664;DHT22;43493;53.098;6.064;2024-03-23T07:51:07;10.30;99.90
57664;DHT22;43493;53.098;6.064;2024-03-23T07:53:34;10.00;99.90
57664;DHT22;43493;53.098;6.064;2024-03-23T07:56:02;9.70;99.90
57664;DHT22;43493;53.098;6.064;2024-03-23T07:58:28;9.60;99.90
57664;DHT22;43493;53.098;6.064;2024-03-23T08:00:55;9.70;99.90
57664;DHT22;43493;53.098;6.064;2024-03-23T08:03:21;9.60;99.90
57664;DHT22;43493;53.098;6.064;2024-03-23T08:05:46;9.60;99.90
57664;DHT22;43493;53.098;6.064;2024-03-23T08:08:13;9.80;99.90
57664;DHT22;43493;53.098;6.064;2024-03-23T08:10:48;9.80;99.90
57664;DHT22;43493;53.098;6.064;2024-03-23T08:13:14;9.60;99.90
57664;DHT22;43493;53.098;6.064;2024-03-23T08:15:40;9.40;99.90
57664;DHT22;43493;53.098;6.064;2024-03-23T08:18:05;9.30;99.90
57664;DHT22;43493;53.098;6.064;2024-03-23T08:20:31;9.20;99.90
57664;DHT22;43493;53.098;6.064;2024-03-23T08:22:57;9.10;99.90
57664;DHT22;43493;53.098;6.064;2024-03-23T08:25:22;9.10;99.90
57664;DHT22;43493;53.098;6.064;2024-03-23T08:27:48;9.30;99.90
57664;DHT22;43493;53.098;6.064;2024-03-23T08:30:14;9.50;99.90
57664;DHT22;43493;53.098;6.064;2024-03-23T08:32:40;9.80;99.90
57664;DHT22;43493;53.098;6.064;2024-03-23T08:35:06;9.90;99.90
57664;DHT22;43493;53.098;6.064;2024-03-23T08:37:32;9.70;99.90
57664;DHT22;43493;53.098;6.064;2024-03-23T08:39:58;9.50;99.90
57664;DHT22;43493;53.098;6.064;2024-03-23T08:42:24;9.30;99.90
57664;DHT22;43493;53.098;6.064;2024-03-23T08:44:50;9.20;99.90
57664;DHT22;43493;53.098;6.064;2024-03-23T08:47:16;9.10;99.90
57664;DHT22;43493;53.098;6.064;2024-03-23T08:49:42;9.10;99.90
57664;DHT22;43493;53.098;6.064;2024-03-23T08:52:08;9.00;99.90
57664;DHT22;43493;53.098;6.064;2024-03-23T08:54:34;8.90;99.90
57664;DHT22;43493;53.098;6.064;2024-03-23T08:57:00;8.90;99.90
57664;DHT22;43493;53.098;6.064;2024-03-23T08:59:26;8.90;99.90
57664;DHT22;43493;53.098;6.064;2024-03-23T09:01:52;9.00;99.90
57664;DHT22;43493;53.098;6.064;2024-03-23T09:04:17;9.10;99.90
57664;DHT22;43493;53.098;6.064;2024-03-23T09:06:43;9.30;99.90
57664;DHT22;43493;53.098;6.064;2024-03-23T09:09:09;9.50;99.90
57664;DHT22;43493;53.098;6.064;2024-03-23T09:11:34;9.60;99.90
57664;DHT22;43493;53.098;6.064;2024-03-23T09:14:00;9.60;99.90
57664;DHT22;43493;53.098;6.064;2024-03-23T09:16:26;9.40;99.90
57664;DHT22;43493;53.098;6.064;2024-03-23T09:18:52;9.20;99.90
57664;DHT22;43493;53.098;6.064;2024-03-23T09:21:18;9.00;99.90
57664;DHT22;43493;53.098;6.064;2024-03-23T09:23:44;8.80;99.90
57664;DHT22;43493;53.098;6.064;2024-03-23T09:26:10;8.70;99.90
57664;DHT22;43493;53.098;6.064;2024-03-23T09:28:36;8.70;99.90
57664;DHT22;43493;53.098;6.064;2024-03-23T09:31:06;8.60;99.90
57664;DHT22;43493;53.098;6.064;2024-03-23T09:33:36;8.60;99.90
57664;DHT22;43493;53.098;6.064;2024-03-23T09:36:05;8.50;99.90
57664;DHT22;43493;53.098;6.064;2024-03-23T09:38:31;8.50;99.90
57664;DHT22;43493;53.098;6.064;2024-03-23T09:40:57;8.40;99.90
57664;DHT22;43493;53.098;6.064;2024-03-23T09:43:23;8.30;99.90
57664;DHT22;43493;53.098;6.064;2024-03-23T09:45:49;8.30;99.90
57664;DHT22;43493;53.098;6.064;2024-03-23T09:48:16;8.30;99.90
57664;DHT22;43493;53.098;6.064;2024-03-23T09:50:43;8.30;99.90
57664;DHT22;43493;53.098;6.064;2024-03-23T09:53:11;8.30;99.90
57664;DHT22;43493;53.098;6.064;2024-03-23T09:55:37;8.40;99.90
57664;DHT22;43493;53.098;6.064;2024-03-23T09:58:04;8.50;99.90
57664;DHT22;43493;53.098;6.064;2024-03-23T10:00:34;8.60;99.90
57664;DHT22;43493;53.098;6.064;2024-03-23T10:03:01;8.80;99.90
57664;DHT22;43493;53.098;6.064;2024-03-23T10:05:30;9.00;99.90
57664;DHT22;43493;53.098;6.064;2024-03-23T10:08:18;9.10;99.90
57664;DHT22;43493;53.098;6.064;2024-03-23T10:10:45;9.30;99.90
57664;DHT22;43493;53.098;6.064;2024-03-23T10:13:23;9.40;99.90
57664;DHT22;43493;53.098;6.064;2024-03-23T10:15:58;9.50;99.90
57664;DHT22;43493;53.098;6.064;2024-03-23T10:18:25;9.60;99.90
57664;DHT22;43493;53.098;6.064;2024-03-23T10:23:47;9.60;99.90
57664;DHT22;43493;53.098;6.064;2024-03-23T10:26:23;9.70;99.90
57664;DHT22;43493;53.098;6.064;2024-03-23T10:28:58;9.60;99.90
57664;DHT22;43493;53.098;6.064;2024-03-23T10:31:31;9.40;99.90
57664;DHT22;43493;53.098;6.064;2024-03-23T10:33:57;9.20;99.90
57664;DHT22;43493;53.098;6.064;2024-03-23T10:36:24;8.90;99.90
57664;DHT22;43493;53.098;6.064;2024-03-23T10:38:51;8.80;99.90
57664;DHT22;43493;53.098;6.064;2024-03-23T10:41:18;8.80;99.90
57664;DHT22;43493;53.098;6.064;2024-03-23T10:43:48;8.80;99.90
57664;DHT22;43493;53.098;6.064;2024-03-23T10:46:14;8.80;99.90
57664;DHT22;43493;53.098;6.064;2024-03-23T10:48:40;8.80;99.90
57664;DHT22;43493;53.098;6.064;2024-03-23T10:51:08;8.80;99.90
57664;DHT22;43493;53.098;6.064;2024-03-23T10:53:34;8.90;99.90
57664;DHT22;43493;53.098;6.064;2024-03-23T10:56:00;9.00;99.90
57664;DHT22;43493;53.098;6.064;2024-03-23T11:00:57;8.90;99.90
57664;DHT22;43493;53.098;6.064;2024-03-23T11:03:33;8.70;99.90
57664;DHT22;43493;53.098;6.064;2024-03-23T11:06:00;8.60;99.90
57664;DHT22;43493;53.098;6.064;2024-03-23T11:08:33;8.50;99.90
57664;DHT22;43493;53.098;6.064;2024-03-23T11:11:17;8.50;99.90
57664;DHT22;43493;53.098;6.064;2024-03-23T11:13:42;8.60;99.90
57664;DHT22;43493;53.098;6.064;2024-03-23T11:16:25;8.60;99.90
57664;DHT22;43493;53.098;6.064;2024-03-23T11:19:35;8.60;99.90
57664;DHT22;43493;53.098;6.064;2024-03-23T11:22:04;8.50;99.90
57664;DHT22;43493;53.098;6.064;2024-03-23T11:24:33;8.50;99.90
57664;DHT22;43493;53.098;6.064;2024-03-23T11:27:00;8.60;99.90
57664;DHT22;43493;53.098;6.064;2024-03-23T11:29:29;8.50;99.90
57664;DHT22;43493;53.098;6.064;2024-03-23T11:31:55;8.30;99.90
57664;DHT22;43493;53.098;6.064;2024-03-23T11:34:22;8.00;99.90
57664;DHT22;43493;53.098;6.064;2024-03-23T11:36:48;7.90;99.90
57664;DHT22;43493;53.098;6.064;2024-03-23T11:39:19;7.80;99.90
57664;DHT22;43493;53.098;6.064;2024-03-23T11:41:56;7.70;99.90
57664;DHT22;43493;53.098;6.064;2024-03-23T11:44:24;7.70;99.90
57664;DHT22;43493;53.098;6.064;2024-03-23T11:46:51;7.80;99.90
57664;DHT22;43493;53.098;6.064;2024-03-23T11:49:22;7.90;99.90
57664;DHT22;43493;53.098;6.064;2024-03-23T11:51:48;8.20;99.90
57664;DHT22;43493;53.098;6.064;2024-03-23T11:54:14;8.30;99.90
57664;DHT22;43493;53.098;6.064;2024-03-23T11:56:40;8.40;99.90
57664;DHT22;43493;53.098;6.064;2024-03-23T11:59:06;8.40;99.90
57664;DHT22;43493;53.098;6.064;2024-03-23T12:01:32;8.40;99.90
57664;DHT22;43493;53.098;6.064;2024-03-23T12:03:58;8.40;99.90
57664;DHT22;43493;53.098;6.064;2024-03-23T12:06:24;8.40;99.90
57664;DHT22;43493;53.098;6.064;2024-03-23T12:08:51;8.30;99.90
57664;DHT22;43493;53.098;6.064;2024-03-23T12:11:17;8.30;99.90
57664;DHT22;43493;53.098;6.064;2024-03-23T12:13:46;8.30;99.90
57664;DHT22;43493;53.098;6.064;2024-03-23T12:18:44;8.30;99.90
57664;DHT22;43493;53.098;6.064;2024-03-23T12:21:10;8.20;99.90
57664;DHT22;43493;53.098;6.064;2024-03-23T12:23:38;8.00;99.90
57664;DHT22;43493;53.098;6.064;2024-03-23T12:26:04;7.80;99.90
57664;DHT22;43493;53.098;6.064;2024-03-23T12:28:29;7.70;99.90
57664;DHT22;43493;53.098;6.064;2024-03-23T12:30:55;7.70;99.90
57664;DHT22;43493;53.098;6.064;2024-03-23T12:33:21;7.60;99.90
57664;DHT22;43493;53.098;6.064;2024-03-23T12:35:48;7.50;99.90
57664;DHT22;43493;53.098;6.064;2024-03-23T12:38:14;7.50;99.90
57664;DHT22;43493;53.098;6.064;2024-03-23T12:40:39;7.50;99.90
57664;DHT22;43493;53.098;6.064;2024-03-23T12:43:06;7.50;99.90
57664;DHT22;43493;53.098;6.064;2024-03-23T12:45:33;7.60;99.90
57664;DHT22;43493;53.098;6.064;2024-03-23T12:47:59;7.60;99.90
57664;DHT22;43493;53.098;6.064;2024-03-23T12:50:24;7.60;99.90
57664;DHT22;43493;53.098;6.064;2024-03-23T12:52:50;7.60;99.90
57664;DHT22;43493;53.098;6.064;2024-03-23T12:55:16;7.50;99.90
57664;DHT22;43493;53.098;6.064;2024-03-23T12:57:42;7.50;99.90
57664;DHT22;43493;53.098;6.064;2024-03-23T13:00:08;7.60;99.90
57664;DHT22;43493;53.098;6.064;2024-03-23T13:02:40;7.60;99.90
57664;DHT22;43493;53.098;6.064;2024-03-23T13:05:06;7.70;99.90
57664;DHT22;43493;53.098;6.064;2024-03-23T13:07:33;7.70;99.90
57664;DHT22;43493;53.098;6.064;2024-03-23T13:09:59;7.80;99.90
57664;DHT22;43493;53.098;6.064;2024-03-23T13:12:24;7.90;99.90
57664;DHT22;43493;53.098;6.064;2024-03-23T13:14:50;8.00;99.90
57664;DHT22;43493;53.098;6.064;2024-03-23T13:17:16;8.00;99.90
57664;DHT22;43493;53.098;6.064;2024-03-23T13:19:41;8.10;99.90
57664;DHT22;43493;53.098;6.064;2024-03-23T13:22:07;8.00;99.90
57664;DHT22;43493;53.098;6.064;2024-03-23T13:24:33;8.00;99.90
57664;DHT22;43493;53.098;6.064;2024-03-23T13:26:59;7.90;99.90
57664;DHT22;43493;53.098;6.064;2024-03-23T13:29:25;7.90;99.90
57664;DHT22;43493;53.098;6.064;2024-03-23T13:31:52;7.90;99.90
57664;DHT22;43493;53.098;6.064;2024-03-23T13:34:18;8.00;99.90
57664;DHT22;43493;53.098;6.064;2024-03-23T13:36:47;8.00;99.90
57664;DHT22;43493;53.098;6.064;2024-03-23T13:39:15;8.00;99.90
57664;DHT22;43493;53.098;6.064;2024-03-23T13:41:45;8.10;99.90
57664;DHT22;43493;53.098;6.064;2024-03-23T13:44:12;8.10;99.90
57664;DHT22;43493;53.098;6.064;2024-03-23T13:46:38;8.10;99.90
57664;DHT22;43493;53.098;6.064;2024-03-23T13:49:05;8.20;99.90
57664;DHT22;43493;53.098;6.064;2024-03-23T13:51:31;8.10;99.90
57664;DHT22;43493;53.098;6.064;2024-03-23T13:53:57;8.00;99.90
57664;DHT22;43493;53.098;6.064;2024-03-23T13:56:27;8.00;99.90
57664;DHT22;43493;53.098;6.064;2024-03-23T13:58:55;7.90;99.90
57664;DHT22;43493;53.098;6.064;2024-03-23T14:01:20;7.80;99.90
57664;DHT22;43493;53.098;6.064;2024-03-23T14:03:46;7.80;99.90
57664;DHT22;43493;53.098;6.064;2024-03-23T14:06:12;7.80;99.90
57664;DHT22;43493;53.098;6.064;2024-03-23T14:08:38;7.90;99.90
57664;DHT22;43493;53.098;6.064;2024-03-23T14:11:08;7.90;99.90
57664;DHT22;43493;53.098;6.064;2024-03-23T14:13:37;7.90;99.90
57664;DHT22;43493;53.098;6.064;2024-03-23T14:16:03;7.90;99.90
57664;DHT22;43493;53.098;6.064;2024-03-23T14:18:29;8.00;99.90
57664;DHT22;43493;53.098;6.064;2024-03-23T14:21:00;8.10;99.90
57664;DHT22;43493;53.098;6.064;2024-03-23T14:23:27;8.10;99.90
57664;DHT22;43493;53.098;6.064;2024-03-23T14:25:56;8.10;99.90
57664;DHT22;43493;53.098;6.064;2024-03-23T14:28:22;8.30;99.90
57664;DHT22;43493;53.098;6.064;2024-03-23T14:30:54;8.30;99.90
57664;DHT22;43493;53.098;6.064;2024-03-23T14:33:20;8.30;99.90
57664;DHT22;43493;53.098;6.064;2024-03-23T14:35:53;8.20;99.90
57664;DHT22;43493;53.098;6.064;2024-03-23T14:38:19;8.10;99.90
57664;DHT22;43493;53.098;6.064;2024-03-23T14:40:46;8.00;99.90
57664;DHT22;43493;53.098;6.064;2024-03-23T14:43:12;8.00;99.90
57664;DHT22;43493;53.098;6.064;2024-03-23T14:46:07;8.00;99.90
57664;DHT22;43493;53.098;6.064;2024-03-23T14:48:34;7.90;99.90
57664;DHT22;43493;53.098;6.064;2024-03-23T14:51:01;8.00;99.90
57664;DHT22;43493;53.098;6.064;2024-03-23T14:53:27;8.00;99.90
57664;DHT22;43493;53.098;6.064;2024-03-23T14:55:59;8.00;99.90
57664;DHT22;43493;53.098;6.064;2024-03-23T14:58:26;8.10;99.90
57664;DHT22;43493;53.098;6.064;2024-03-23T15:00:51;8.10;99.90
57664;DHT22;43493;53.098;6.064;2024-03-23T15:03:18;8.10;99.90
57664;DHT22;43493;53.098;6.064;2024-03-23T15:05:57;8.20;99.90
57664;DHT22;43493;53.098;6.064;2024-03-23T15:08:23;8.20;99.90
57664;DHT22;43493;53.098;6.064;2024-03-23T15:10:49;8.20;99.90
57664;DHT22;43493;53.098;6.064;2024-03-23T15:13:15;8.30;99.90
57664;DHT22;43493;53.098;6.064;2024-03-23T15:15:41;8.20;99.90
57664;DHT22;43493;53.098;6.064;2024-03-23T15:18:12;8.30;99.90
57664;DHT22;43493;53.098;6.064;2024-03-23T15:20:38;8.20;99.90
57664;DHT22;43493;53.098;6.064;2024-03-23T15:23:04;8.20;99.90
57664;DHT22;43493;53.098;6.064;2024-03-23T15:25:30;8.20;99.90
57664;DHT22;43493;53.098;6.064;2024-03-23T15:27:56;8.20;99.90
57664;DHT22;43493;53.098;6.064;2024-03-23T15:30:23;8.20;99.90
57664;DHT22;43493;53.098;6.064;2024-03-23T15:32:49;8.20;99.90
57664;DHT22;43493;53.098;6.064;2024-03-23T15:35:15;8.20;99.90
57664;DHT22;43493;53.098;6.064;2024-03-23T15:37:41;8.20;99.90
57664;DHT22;43493;53.098;6.064;2024-03-23T15:40:07;8.20;99.90
57664;DHT22;43493;53.098;6.064;2024-03-23T15:42:35;8.20;99.90
57664;DHT22;43493;53.098;6.064;2024-03-23T15:45:01;8.20;99.90
57664;DHT22;43493;53.098;6.064;2024-03-23T15:47:29;8.10;99.90
57664;DHT22;43493;53.098;6.064;2024-03-23T15:49:54;8.00;99.90
57664;DHT22;43493;53.098;6.064;2024-03-23T15:52:21;8.00;99.90
57664;DHT22;43493;53.098;6.064;2024-03-23T15:54:47;8.00;99.90
57664;DHT22;43493;53.098;6.064;2024-03-23T15:57:12;8.00;99.90
57664;DHT22;43493;53.098;6.064;2024-03-23T15:59:41;7.90;99.90
57664;DHT22;43493;53.098;6.064;2024-03-23T16:02:06;8.00;99.90
57664;DHT22;43493;53.098;6.064;2024-03-23T16:04:32;8.00;99.90
57664;DHT22;43493;53.098;6.064;2024-03-23T16:06:58;8.00;99.90
57664;DHT22;43493;53.098;6.064;2024-03-23T16:09:23;8.00;99.90
57664;DHT22;43493;53.098;6.064;2024-03-23T16:11:49;8.00;99.90
57664;DHT22;43493;53.098;6.064;2024-03-23T16:14:15;7.90;99.90
57664;DHT22;43493;53.098;6.064;2024-03-23T16:16:40;7.90;99.90
57664;DHT22;43493;53.098;6.064;2024-03-23T16:19:06;7.90;99.90
57664;DHT22;43493;53.098;6.064;2024-03-23T16:21:32;7.90;99.90
57664;DHT22;43493;53.098;6.064;2024-03-23T16:23:58;7.90;99.90
57664;DHT22;43493;53.098;6.064;2024-03-23T16:26:23;7.90;99.90
57664;DHT22;43493;53.098;6.064;2024-03-23T16:28:49;7.80;99.90
57664;DHT22;43493;53.098;6.064;2024-03-23T16:31:15;7.80;99.90
57664;DHT22;43493;53.098;6.064;2024-03-23T16:33:42;7.80;99.90
57664;DHT22;43493;53.098;6.064;2024-03-23T16:36:09;7.80;99.90
57664;DHT22;43493;53.098;6.064;2024-03-23T16:38:39;7.90;99.90
57664;DHT22;43493;53.098;6.064;2024-03-23T16:41:07;7.80;99.90
57664;DHT22;43493;53.098;6.064;2024-03-23T16:43:34;7.90;99.90
57664;DHT22;43493;53.098;6.064;2024-03-23T16:46:04;8.00;99.90